createdAt,value
2022-11-15T00:02:06.103Z,71.64
2022-11-15T00:07:58.202Z,71.41
2022-11-15T00:13:48.407Z,71.90
2022-11-15T00:19:38.337Z,71.92
2022-11-15T00:25:28.599Z,71.70
2022-11-15T00:31:18.827Z,71.81
2022-11-15T00:37:10.158Z,72.03
2022-11-15T00:43:00.536Z,72.10
2022-11-15T00:48:50.645Z,72.31
2022-11-15T00:54:40.803Z,71.89
2022-11-15T01:00:30.974Z,72.35
2022-11-15T01:06:20.974Z,72.53
2022-11-15T01:12:11.134Z,72.50
2022-11-15T01:18:01.289Z,72.43
2022-11-15T01:23:57.842Z,72.67
2022-11-15T01:29:48.577Z,72.71
2022-11-15T01:35:41.092Z,72.73
2022-11-15T01:41:33.824Z,72.45
2022-11-15T01:47:30.324Z,72.84
2022-11-15T01:53:23.134Z,72.50
2022-11-15T01:59:13.979Z,72.78
2022-11-15T02:05:05.123Z,72.78
2022-11-15T02:10:55.219Z,72.90
2022-11-15T02:17:03.746Z,72.80
2022-11-15T02:23:34.101Z,72.75
2022-11-15T02:29:43.179Z,72.81
2022-11-15T02:35:38.968Z,72.90
2022-11-15T02:41:37.093Z,72.85
2022-11-15T02:47:27.946Z,72.64
2022-11-15T02:53:17.838Z,72.74
2022-11-15T02:59:30.997Z,72.99
2022-11-15T03:05:39.970Z,72.92
2022-11-15T03:11:31.213Z,72.52
2022-11-15T03:17:28.126Z,72.62
2022-11-15T03:23:18.877Z,72.60
2022-11-15T03:29:16.650Z,72.52
2022-11-15T03:35:08.928Z,72.67
2022-11-15T03:41:09.391Z,72.70
2022-11-15T03:47:05.444Z,72.83
2022-11-15T03:52:56.082Z,72.66
2022-11-15T03:58:46.389Z,72.62
2022-11-15T04:04:36.248Z,72.46
2022-11-15T04:10:26.479Z,72.70
2022-11-15T04:16:16.482Z,72.45
2022-11-15T04:22:27.560Z,72.50
2022-11-15T04:28:17.676Z,72.46
2022-11-15T04:34:08.568Z,72.55
2022-11-15T04:39:58.556Z,72.65
2022-11-15T04:45:48.175Z,72.29
2022-11-15T04:51:38.204Z,72.06
2022-11-15T04:57:27.815Z,72.29
2022-11-15T05:03:36.555Z,72.67
2022-11-15T05:09:26.701Z,72.57
2022-11-15T05:15:16.718Z,72.03
2022-11-15T05:21:09.292Z,72.21
2022-11-15T05:26:59.297Z,72.35
2022-11-15T05:32:49.985Z,72.37
2022-11-15T05:38:40.223Z,72.35
2022-11-15T05:44:30.836Z,72.16
2022-11-15T05:50:20.974Z,72.25
2022-11-15T05:56:11.523Z,72.41
2022-11-15T06:02:01.723Z,71.97
2022-11-15T06:07:51.564Z,72.39
2022-11-15T06:13:41.836Z,71.86
2022-11-15T06:19:34.333Z,71.89
2022-11-15T06:25:24.658Z,71.87
2022-11-15T06:31:14.785Z,72.22
2022-11-15T06:37:05.156Z,72.12
2022-11-15T06:43:00.764Z,71.63
2022-11-15T06:48:54.520Z,71.73
2022-11-15T06:54:44.694Z,71.81
2022-11-15T07:00:34.898Z,72.02
2022-11-15T07:06:25.140Z,71.71
2022-11-15T07:12:15.614Z,72.15
2022-11-15T07:18:05.573Z,71.73
2022-11-15T07:23:56.117Z,71.46
2022-11-15T07:29:45.914Z,71.17
2022-11-15T07:35:36.168Z,71.56
2022-11-15T07:41:26.141Z,71.03
2022-11-15T07:47:16.710Z,71.59
2022-11-15T07:53:06.775Z,71.47
2022-11-15T07:58:57.265Z,71.27
2022-11-15T08:04:48.029Z,71.12
2022-11-15T08:10:40.798Z,70.93
2022-11-15T08:16:30.835Z,70.74
2022-11-15T08:22:21.046Z,70.77
2022-11-15T08:28:11.796Z,71.06
2022-11-15T08:34:02.140Z,71.22
2022-11-15T08:39:52.118Z,71.06
2022-11-15T08:45:42.220Z,71.16
2022-11-15T08:51:32.396Z,70.96
2022-11-15T08:57:22.187Z,71.22
2022-11-15T09:03:12.176Z,70.97
2022-11-15T09:09:03.638Z,71.15
2022-11-15T09:14:53.807Z,70.95
2022-11-15T09:20:43.904Z,71.26
2022-11-15T09:26:33.923Z,70.73
2022-11-15T09:32:24.830Z,71.23
2022-11-15T09:38:14.712Z,71.41
2022-11-15T09:44:04.641Z,71.22
2022-11-15T09:49:59.080Z,71.19
2022-11-15T09:55:57.561Z,71.47
2022-11-15T10:01:40.740Z,71.38
2022-11-15T10:07:19.824Z,71.18
2022-11-15T10:12:51.921Z,71.16
2022-11-15T10:18:36.980Z,71.43
2022-11-15T10:24:20.728Z,71.61
2022-11-15T10:29:52.188Z,71.45
2022-11-15T10:35:25.619Z,71.36
2022-11-15T10:41:08.176Z,71.44
2022-11-15T10:46:48.877Z,71.37
2022-11-15T10:52:21.820Z,71.53
2022-11-15T10:57:55.817Z,71.59
2022-11-15T11:03:40.934Z,71.37
2022-11-15T11:09:31.794Z,71.23
2022-11-15T11:15:10.476Z,71.37
2022-11-15T11:20:45.859Z,71.13
2022-11-15T11:26:28.689Z,71.32
2022-11-15T11:32:18.044Z,71.49
2022-11-15T11:38:07.954Z,71.55
2022-11-15T11:44:00.201Z,71.30
2022-11-15T11:49:37.938Z,71.41
2022-11-15T11:55:15.109Z,71.47
2022-11-15T12:00:51.293Z,71.94
2022-11-15T12:06:37.194Z,71.68
2022-11-15T12:12:24.698Z,71.80
2022-11-15T12:17:57.436Z,71.71
2022-11-15T12:23:32.179Z,71.42
2022-11-15T12:29:11.658Z,71.88
2022-11-15T12:34:46.353Z,71.44
2022-11-15T12:40:20.866Z,71.38
2022-11-15T12:45:52.499Z,71.39
2022-11-15T12:51:48.260Z,71.54
2022-11-15T12:57:34.821Z,71.55
2022-11-15T13:03:35.083Z,71.80
2022-11-15T13:09:34.833Z,71.64
2022-11-15T13:15:14.892Z,71.99
2022-11-15T13:20:47.010Z,71.69
2022-11-15T13:26:18.463Z,71.87
2022-11-15T13:31:50.435Z,71.52
2022-11-15T13:37:21.789Z,71.56
2022-11-15T13:42:52.784Z,71.48
2022-11-15T13:48:24.014Z,71.67
2022-11-15T13:54:10.988Z,72.00
2022-11-15T13:59:48.474Z,71.76
2022-11-15T14:05:25.200Z,72.02
2022-11-15T14:11:13.147Z,71.78
2022-11-15T14:16:53.572Z,71.72
2022-11-15T14:22:34.646Z,72.09
2022-11-15T14:28:11.891Z,72.28
2022-11-15T14:33:43.271Z,72.17
2022-11-15T14:39:14.192Z,72.14
2022-11-15T14:44:46.294Z,72.21
2022-11-15T14:50:20.477Z,72.20
2022-11-15T14:55:51.602Z,72.16
2022-11-15T15:01:26.179Z,72.11
2022-11-15T15:06:57.838Z,71.98
2022-11-15T15:12:30.369Z,72.09
2022-11-15T15:18:02.147Z,72.16
2022-11-15T15:23:33.771Z,72.07
2022-11-15T15:29:05.103Z,72.07
2022-11-15T15:34:36.238Z,72.25
2022-11-15T15:40:19.632Z,71.86
2022-11-15T15:45:50.855Z,71.93
2022-11-15T15:51:21.934Z,71.97
2022-11-15T15:56:56.175Z,71.90
2022-11-15T16:02:27.579Z,71.87
2022-11-15T16:07:59.204Z,71.88
2022-11-15T16:13:30.192Z,72.05
2022-11-15T16:19:02.012Z,71.92
2022-11-15T16:24:33.606Z,71.98
2022-11-15T16:30:05.190Z,71.94
2022-11-15T16:35:36.912Z,72.00
2022-11-15T16:41:08.214Z,71.97
2022-11-15T16:46:42.821Z,71.98
2022-11-15T16:52:18.738Z,71.58
2022-11-15T16:57:52.925Z,71.97
2022-11-15T17:03:24.985Z,72.02
2022-11-15T17:08:56.854Z,71.66
2022-11-15T17:14:27.931Z,71.92
2022-11-15T17:19:58.993Z,71.99
2022-11-15T17:25:30.295Z,71.79
2022-11-15T17:31:01.804Z,71.78
2022-11-15T17:36:33.190Z,71.84
2022-11-15T17:42:04.531Z,71.65
2022-11-15T17:47:35.642Z,71.81
2022-11-15T17:53:06.811Z,71.69
2022-11-15T17:58:38.136Z,72.02
2022-11-15T18:04:10.298Z,71.84
2022-11-15T18:09:44.251Z,71.93
2022-11-15T18:15:15.630Z,71.64
2022-11-15T18:20:46.947Z,71.89
2022-11-15T18:26:20.927Z,71.65
2022-11-15T18:31:57.826Z,71.75
2022-11-15T18:37:28.791Z,71.60
2022-11-15T18:43:00.049Z,71.69
2022-11-15T18:48:32.495Z,71.53
2022-11-15T18:54:04.457Z,71.49
2022-11-15T18:59:35.668Z,71.45
2022-11-15T19:05:06.940Z,71.34
2022-11-15T19:10:37.992Z,71.25
2022-11-15T19:16:11.249Z,71.31
2022-11-15T19:21:43.480Z,71.50
2022-11-15T19:27:14.416Z,71.47
2022-11-15T19:32:45.413Z,71.49
2022-11-15T19:38:16.916Z,71.46
2022-11-15T19:43:48.524Z,71.56
2022-11-15T19:49:19.901Z,71.27
2022-11-15T19:54:50.731Z,71.43
2022-11-15T20:00:22.091Z,71.35
2022-11-15T20:05:53.414Z,71.44
2022-11-15T20:11:25.100Z,71.40
2022-11-15T20:16:56.854Z,71.63
2022-11-15T20:22:28.103Z,71.16
2022-11-15T20:27:59.356Z,71.33
2022-11-15T20:33:30.812Z,71.19
2022-11-15T20:39:01.996Z,71.23
2022-11-15T20:44:33.166Z,71.12
2022-11-15T20:50:21.124Z,71.42
2022-11-15T20:55:55.704Z,71.09
2022-11-15T21:01:27.617Z,71.35
2022-11-15T21:06:59.146Z,71.43
2022-11-15T21:12:32.356Z,71.39
2022-11-15T21:18:03.737Z,70.97
2022-11-15T21:23:34.976Z,71.26
2022-11-15T21:29:06.188Z,71.37
2022-11-15T21:34:37.494Z,71.86
2022-11-15T21:40:09.389Z,71.68
2022-11-15T21:45:40.661Z,71.73
2022-11-15T21:51:12.593Z,72.18
2022-11-15T21:56:44.578Z,71.92
2022-11-15T22:02:15.868Z,72.28
2022-11-15T22:07:47.038Z,71.77
2022-11-15T22:13:18.777Z,71.75
2022-11-15T22:18:50.144Z,72.00
2022-11-15T22:24:22.694Z,71.90
2022-11-15T22:29:53.882Z,72.11
2022-11-15T22:35:25.031Z,72.28
2022-11-15T22:40:56.982Z,72.39
2022-11-15T22:46:30.671Z,71.99
2022-11-15T22:52:01.807Z,72.43
2022-11-15T22:57:32.939Z,72.32
2022-11-15T23:03:05.046Z,72.33
2022-11-15T23:08:36.905Z,72.50
2022-11-15T23:14:08.862Z,72.17
2022-11-15T23:19:40.254Z,72.18
2022-11-15T23:25:11.514Z,72.30
2022-11-15T23:31:01.241Z,72.45
2022-11-15T23:36:32.829Z,71.99
2022-11-15T23:42:08.845Z,72.11
2022-11-15T23:47:40.789Z,72.56
2022-11-15T23:53:12.312Z,72.46
2022-11-15T23:58:44.533Z,72.63
